sensor_id;sensor_type;location;lat;lon;timestamp;P1;durP1;ratioP1;P2;durP2;ratioP2
70715;SDS011;59053;50.832;12.882;2023-04-24T00:01:27;1.83;;;0.90;;
70715;SDS011;59053;50.832;12.882;2023-04-24T00:04:00;1.40;;;0.90;;
70715;SDS011;59053;50.832;12.882;2023-04-24T00:06:26;1.92;;;0.88;;
70715;SDS011;59053;50.832;12.882;2023-04-24T00:09:02;1.67;;;0.90;;
70715;SDS011;59053;50.832;12.882;2023-04-24T00:11:40;1.30;;;0.90;;
70715;SDS011;59053;50.832;12.882;2023-04-24T00:14:07;2.10;;;0.90;;
70715;SDS011;59053;50.832;12.882;2023-04-24T00:16:32;1.60;;;1.10;;
70715;SDS011;59053;50.832;12.882;2023-04-24T00:22:45;1.33;;;0.80;;
70715;SDS011;59053;50.832;12.882;2023-04-24T00:25:10;1.25;;;0.90;;
70715;SDS011;59053;50.832;12.882;2023-04-24T00:27:36;1.23;;;1.00;;
70715;SDS011;59053;50.832;12.882;2023-04-24T00:30:02;1.90;;;1.10;;
70715;SDS011;59053;50.832;12.882;2023-04-24T00:32:51;1.85;;;1.10;;
70715;SDS011;59053;50.832;12.882;2023-04-24T00:35:25;1.67;;;1.20;;
70715;SDS011;59053;50.832;12.882;2023-04-24T00:37:50;1.63;;;1.15;;
70715;SDS011;59053;50.832;12.882;2023-04-24T00:40:22;3.80;;;1.20;;
70715;SDS011;59053;50.832;12.882;2023-04-24T00:42:53;1.23;;;1.00;;
70715;SDS011;59053;50.832;12.882;2023-04-24T00:59:24;2.25;;;1.30;;
70715;SDS011;59053;50.832;12.882;2023-04-24T01:05:04;1.63;;;1.20;;
70715;SDS011;59053;50.832;12.882;2023-04-24T01:07:28;3.10;;;1.30;;
70715;SDS011;59053;50.832;12.882;2023-04-24T01:09:54;4.18;;;1.30;;
70715;SDS011;59053;50.832;12.882;2023-04-24T01:12:23;3.33;;;1.20;;
70715;SDS011;59053;50.832;12.882;2023-04-24T01:18:06;1.83;;;1.35;;
70715;SDS011;59053;50.832;12.882;2023-04-24T01:20:44;3.33;;;1.50;;
70715;SDS011;59053;50.832;12.882;2023-04-24T01:24:10;3.23;;;1.50;;
70715;SDS011;59053;50.832;12.882;2023-04-24T01:26:37;2.20;;;1.40;;
70715;SDS011;59053;50.832;12.882;2023-04-24T01:29:02;2.13;;;1.30;;
70715;SDS011;59053;50.832;12.882;2023-04-24T01:31:31;2.40;;;1.30;;
70715;SDS011;59053;50.832;12.882;2023-04-24T01:34:15;1.90;;;1.23;;
70715;SDS011;59053;50.832;12.882;2023-04-24T01:37:18;3.78;;;1.20;;
70715;SDS011;59053;50.832;12.882;2023-04-24T01:43:06;3.22;;;1.33;;
70715;SDS011;59053;50.832;12.882;2023-04-24T01:45:32;1.90;;;1.30;;
70715;SDS011;59053;50.832;12.882;2023-04-24T01:48:09;1.90;;;1.30;;
70715;SDS011;59053;50.832;12.882;2023-04-24T01:50:44;2.00;;;1.33;;
70715;SDS011;59053;50.832;12.882;2023-04-24T01:53:57;2.22;;;1.20;;
70715;SDS011;59053;50.832;12.882;2023-04-24T01:56:25;2.00;;;1.30;;
70715;SDS011;59053;50.832;12.882;2023-04-24T02:02:23;1.88;;;1.23;;
70715;SDS011;59053;50.832;12.882;2023-04-24T02:04:52;2.00;;;1.30;;
70715;SDS011;59053;50.832;12.882;2023-04-24T02:11:19;2.78;;;1.40;;
70715;SDS011;59053;50.832;12.882;2023-04-24T02:18:27;2.97;;;1.35;;
70715;SDS011;59053;50.832;12.882;2023-04-24T02:21:19;3.57;;;1.27;;
70715;SDS011;59053;50.832;12.882;2023-04-24T02:37:46;2.13;;;1.30;;
70715;SDS011;59053;50.832;12.882;2023-04-24T02:51:32;2.13;;;1.40;;
70715;SDS011;59053;50.832;12.882;2023-04-24T02:53:57;2.20;;;1.30;;
70715;SDS011;59053;50.832;12.882;2023-04-24T02:56:23;2.33;;;1.40;;
70715;SDS011;59053;50.832;12.882;2023-04-24T02:58:48;3.97;;;1.40;;
70715;SDS011;59053;50.832;12.882;2023-04-24T03:01:13;4.03;;;1.40;;
70715;SDS011;59053;50.832;12.882;2023-04-24T03:03:39;3.10;;;1.40;;
70715;SDS011;59053;50.832;12.882;2023-04-24T03:06:04;3.17;;;1.48;;
70715;SDS011;59053;50.832;12.882;2023-04-24T03:08:31;2.00;;;1.40;;
70715;SDS011;59053;50.832;12.882;2023-04-24T03:10:57;3.17;;;1.60;;
70715;SDS011;59053;50.832;12.882;2023-04-24T03:13:22;3.23;;;1.50;;
70715;SDS011;59053;50.832;12.882;2023-04-24T03:15:47;3.77;;;1.50;;
70715;SDS011;59053;50.832;12.882;2023-04-24T03:18:13;3.13;;;1.60;;
70715;SDS011;59053;50.832;12.882;2023-04-24T03:20:39;4.50;;;1.73;;
70715;SDS011;59053;50.832;12.882;2023-04-24T03:23:04;3.97;;;1.60;;
70715;SDS011;59053;50.832;12.882;2023-04-24T03:25:30;3.03;;;1.60;;
70715;SDS011;59053;50.832;12.882;2023-04-24T03:27:55;4.15;;;1.42;;
70715;SDS011;59053;50.832;12.882;2023-04-24T03:30:32;2.45;;;1.50;;
70715;SDS011;59053;50.832;12.882;2023-04-24T03:32:59;3.73;;;1.90;;
70715;SDS011;59053;50.832;12.882;2023-04-24T03:35:28;4.18;;;1.65;;
70715;SDS011;59053;50.832;12.882;2023-04-24T03:37:54;3.25;;;1.80;;
70715;SDS011;59053;50.832;12.882;2023-04-24T03:40:43;2.75;;;1.70;;
70715;SDS011;59053;50.832;12.882;2023-04-24T03:43:24;3.60;;;1.73;;
70715;SDS011;59053;50.832;12.882;2023-04-24T03:45:49;4.43;;;1.90;;
70715;SDS011;59053;50.832;12.882;2023-04-24T03:48:16;2.20;;;1.60;;
70715;SDS011;59053;50.832;12.882;2023-04-24T03:50:42;4.07;;;1.80;;
70715;SDS011;59053;50.832;12.882;2023-04-24T03:53:09;5.13;;;2.22;;
70715;SDS011;59053;50.832;12.882;2023-04-24T03:55:38;4.60;;;1.90;;
70715;SDS011;59053;50.832;12.882;2023-04-24T03:58:03;3.08;;;1.90;;
70715;SDS011;59053;50.832;12.882;2023-04-24T04:00:29;3.67;;;2.00;;
70715;SDS011;59053;50.832;12.882;2023-04-24T04:03:18;4.07;;;1.95;;
70715;SDS011;59053;50.832;12.882;2023-04-24T04:05:44;3.87;;;1.90;;
70715;SDS011;59053;50.832;12.882;2023-04-24T04:08:09;3.95;;;1.83;;
70715;SDS011;59053;50.832;12.882;2023-04-24T04:10:35;2.70;;;1.50;;
70715;SDS011;59053;50.832;12.882;2023-04-24T04:13:03;2.95;;;1.65;;
70715;SDS011;59053;50.832;12.882;2023-04-24T04:15:28;3.00;;;1.60;;
70715;SDS011;59053;50.832;12.882;2023-04-24T04:17:54;2.60;;;1.50;;
70715;SDS011;59053;50.832;12.882;2023-04-24T04:20:19;5.88;;;1.52;;
70715;SDS011;59053;50.832;12.882;2023-04-24T04:22:45;3.63;;;1.87;;
70715;SDS011;59053;50.832;12.882;2023-04-24T04:25:16;3.80;;;2.07;;
70715;SDS011;59053;50.832;12.882;2023-04-24T04:27:44;2.78;;;1.67;;
70715;SDS011;59053;50.832;12.882;2023-04-24T04:30:12;3.20;;;1.88;;
70715;SDS011;59053;50.832;12.882;2023-04-24T04:32:49;5.32;;;1.77;;
70715;SDS011;59053;50.832;12.882;2023-04-24T04:35:15;3.07;;;1.90;;
70715;SDS011;59053;50.832;12.882;2023-04-24T04:37:40;4.95;;;1.90;;
70715;SDS011;59053;50.832;12.882;2023-04-24T04:40:36;2.80;;;1.80;;
70715;SDS011;59053;50.832;12.882;2023-04-24T04:43:04;3.57;;;1.90;;
70715;SDS011;59053;50.832;12.882;2023-04-24T04:45:37;4.13;;;1.85;;
70715;SDS011;59053;50.832;12.882;2023-04-24T04:48:42;3.40;;;1.70;;
70715;SDS011;59053;50.832;12.882;2023-04-24T04:51:08;2.60;;;1.70;;
70715;SDS011;59053;50.832;12.882;2023-04-24T04:53:34;4.30;;;1.77;;
70715;SDS011;59053;50.832;12.882;2023-04-24T04:56:00;4.15;;;1.70;;
70715;SDS011;59053;50.832;12.882;2023-04-24T04:58:32;3.85;;;1.90;;
70715;SDS011;59053;50.832;12.882;2023-04-24T05:01:00;5.43;;;2.00;;
70715;SDS011;59053;50.832;12.882;2023-04-24T05:03:36;4.03;;;1.90;;
70715;SDS011;59053;50.832;12.882;2023-04-24T05:06:05;3.25;;;1.77;;
70715;SDS011;59053;50.832;12.882;2023-04-24T05:08:34;3.00;;;1.77;;
70715;SDS011;59053;50.832;12.882;2023-04-24T05:11:00;2.90;;;1.70;;
70715;SDS011;59053;50.832;12.882;2023-04-24T05:13:28;2.90;;;1.80;;
70715;SDS011;59053;50.832;12.882;2023-04-24T05:15:53;4.25;;;1.80;;
70715;SDS011;59053;50.832;12.882;2023-04-24T05:18:19;4.00;;;1.80;;
70715;SDS011;59053;50.832;12.882;2023-04-24T05:20:44;2.60;;;1.50;;
70715;SDS011;59053;50.832;12.882;2023-04-24T05:23:10;5.00;;;1.87;;
70715;SDS011;59053;50.832;12.882;2023-04-24T05:25:38;2.92;;;1.55;;
70715;SDS011;59053;50.832;12.882;2023-04-24T05:28:08;3.00;;;1.67;;
70715;SDS011;59053;50.832;12.882;2023-04-24T05:30:33;4.30;;;1.77;;
70715;SDS011;59053;50.832;12.882;2023-04-24T05:32:59;4.05;;;1.67;;
70715;SDS011;59053;50.832;12.882;2023-04-24T05:35:25;4.00;;;1.60;;
70715;SDS011;59053;50.832;12.882;2023-04-24T05:37:50;3.80;;;1.70;;
70715;SDS011;59053;50.832;12.882;2023-04-24T05:40:16;3.03;;;1.55;;
70715;SDS011;59053;50.832;12.882;2023-04-24T05:42:42;4.30;;;1.73;;
70715;SDS011;59053;50.832;12.882;2023-04-24T05:45:07;5.43;;;1.60;;
70715;SDS011;59053;50.832;12.882;2023-04-24T05:47:34;3.88;;;1.70;;
70715;SDS011;59053;50.832;12.882;2023-04-24T05:49:59;2.10;;;1.40;;
70715;SDS011;59053;50.832;12.882;2023-04-24T05:52:24;3.92;;;1.40;;
70715;SDS011;59053;50.832;12.882;2023-04-24T05:54:50;2.87;;;1.30;;
70715;SDS011;59053;50.832;12.882;2023-04-24T05:57:22;6.95;;;1.40;;
70715;SDS011;59053;50.832;12.882;2023-04-24T06:00:00;3.45;;;1.30;;
70715;SDS011;59053;50.832;12.882;2023-04-24T06:02:27;2.90;;;1.23;;
70715;SDS011;59053;50.832;12.882;2023-04-24T06:04:52;2.27;;;1.20;;
70715;SDS011;59053;50.832;12.882;2023-04-24T06:07:18;1.85;;;1.20;;
70715;SDS011;59053;50.832;12.882;2023-04-24T06:09:43;4.40;;;1.20;;
70715;SDS011;59053;50.832;12.882;2023-04-24T06:12:09;1.98;;;1.08;;
70715;SDS011;59053;50.832;12.882;2023-04-24T06:14:52;1.60;;;1.10;;
70715;SDS011;59053;50.832;12.882;2023-04-24T06:17:25;1.43;;;1.17;;
70715;SDS011;59053;50.832;12.882;2023-04-24T06:19:50;3.60;;;1.30;;
70715;SDS011;59053;50.832;12.882;2023-04-24T06:22:16;3.50;;;1.13;;
70715;SDS011;59053;50.832;12.882;2023-04-24T06:24:42;1.70;;;1.15;;
70715;SDS011;59053;50.832;12.882;2023-04-24T06:27:07;3.40;;;1.20;;
70715;SDS011;59053;50.832;12.882;2023-04-24T06:29:33;4.17;;;1.30;;
70715;SDS011;59053;50.832;12.882;2023-04-24T06:31:58;2.33;;;1.30;;
70715;SDS011;59053;50.832;12.882;2023-04-24T06:34:23;3.00;;;1.50;;
70715;SDS011;59053;50.832;12.882;2023-04-24T06:36:49;6.13;;;1.40;;
70715;SDS011;59053;50.832;12.882;2023-04-24T06:39:14;2.47;;;1.30;;
70715;SDS011;59053;50.832;12.882;2023-04-24T06:41:40;1.70;;;1.10;;
70715;SDS011;59053;50.832;12.882;2023-04-24T06:44:07;2.35;;;1.20;;
70715;SDS011;59053;50.832;12.882;2023-04-24T06:46:33;3.17;;;1.30;;
70715;SDS011;59053;50.832;12.882;2023-04-24T06:48:58;1.75;;;1.10;;
70715;SDS011;59053;50.832;12.882;2023-04-24T06:51:24;2.07;;;1.23;;
70715;SDS011;59053;50.832;12.882;2023-04-24T06:53:51;3.88;;;1.33;;
70715;SDS011;59053;50.832;12.882;2023-04-24T06:56:16;3.57;;;1.30;;
70715;SDS011;59053;50.832;12.882;2023-04-24T06:58:42;8.52;;;2.35;;
70715;SDS011;59053;50.832;12.882;2023-04-24T07:01:07;2.80;;;1.43;;
70715;SDS011;59053;50.832;12.882;2023-04-24T07:03:32;2.33;;;1.60;;
70715;SDS011;59053;50.832;12.882;2023-04-24T07:05:58;4.03;;;1.30;;
70715;SDS011;59053;50.832;12.882;2023-04-24T07:08:23;3.83;;;1.42;;
70715;SDS011;59053;50.832;12.882;2023-04-24T07:10:49;4.77;;;1.50;;
70715;SDS011;59053;50.832;12.882;2023-04-24T07:13:15;3.08;;;1.60;;
70715;SDS011;59053;50.832;12.882;2023-04-24T07:15:40;3.07;;;1.37;;
70715;SDS011;59053;50.832;12.882;2023-04-24T07:18:06;2.60;;;1.40;;
70715;SDS011;59053;50.832;12.882;2023-04-24T07:20:31;1.87;;;1.30;;
70715;SDS011;59053;50.832;12.882;2023-04-24T07:22:58;3.60;;;1.15;;
70715;SDS011;59053;50.832;12.882;2023-04-24T07:25:23;3.07;;;1.30;;
70715;SDS011;59053;50.832;12.882;2023-04-24T07:27:48;2.10;;;1.20;;
70715;SDS011;59053;50.832;12.882;2023-04-24T07:30:14;2.63;;;1.30;;
70715;SDS011;59053;50.832;12.882;2023-04-24T07:32:39;3.93;;;1.40;;
70715;SDS011;59053;50.832;12.882;2023-04-24T07:35:04;2.37;;;1.17;;
70715;SDS011;59053;50.832;12.882;2023-04-24T07:37:30;2.57;;;1.30;;
70715;SDS011;59053;50.832;12.882;2023-04-24T07:39:55;2.90;;;1.45;;
70715;SDS011;59053;50.832;12.882;2023-04-24T07:42:21;2.70;;;1.37;;
70715;SDS011;59053;50.832;12.882;2023-04-24T07:44:46;1.63;;;1.10;;
70715;SDS011;59053;50.832;12.882;2023-04-24T07:47:12;3.15;;;1.20;;
70715;SDS011;59053;50.832;12.882;2023-04-24T07:49:41;1.40;;;1.10;;
70715;SDS011;59053;50.832;12.882;2023-04-24T07:52:06;3.67;;;1.30;;
70715;SDS011;59053;50.832;12.882;2023-04-24T07:54:32;2.67;;;1.17;;
70715;SDS011;59053;50.832;12.882;2023-04-24T07:56:57;2.77;;;1.40;;
70715;SDS011;59053;50.832;12.882;2023-04-24T07:59:22;4.03;;;1.38;;
70715;SDS011;59053;50.832;12.882;2023-04-24T08:01:48;2.20;;;1.20;;
70715;SDS011;59053;50.832;12.882;2023-04-24T08:04:13;3.00;;;1.20;;
70715;SDS011;59053;50.832;12.882;2023-04-24T08:06:39;2.77;;;1.13;;
70715;SDS011;59053;50.832;12.882;2023-04-24T08:09:04;2.20;;;1.10;;
70715;SDS011;59053;50.832;12.882;2023-04-24T08:11:30;2.05;;;1.30;;
70715;SDS011;59053;50.832;12.882;2023-04-24T08:13:55;2.37;;;1.10;;
70715;SDS011;59053;50.832;12.882;2023-04-24T08:16:20;2.93;;;1.10;;
70715;SDS011;59053;50.832;12.882;2023-04-24T08:18:46;3.77;;;1.50;;
70715;SDS011;59053;50.832;12.882;2023-04-24T08:21:11;3.07;;;1.30;;
70715;SDS011;59053;50.832;12.882;2023-04-24T08:23:41;3.97;;;1.10;;
70715;SDS011;59053;50.832;12.882;2023-04-24T08:26:07;2.93;;;1.10;;
70715;SDS011;59053;50.832;12.882;2023-04-24T08:28:32;1.85;;;1.00;;
70715;SDS011;59053;50.832;12.882;2023-04-24T08:30:57;2.43;;;1.10;;
70715;SDS011;59053;50.832;12.882;2023-04-24T08:33:23;1.83;;;1.00;;
70715;SDS011;59053;50.832;12.882;2023-04-24T08:35:48;1.80;;;1.20;;
70715;SDS011;59053;50.832;12.882;2023-04-24T08:38:14;2.75;;;1.15;;
70715;SDS011;59053;50.832;12.882;2023-04-24T08:40:40;1.20;;;1.10;;
70715;SDS011;59053;50.832;12.882;2023-04-24T08:43:06;3.75;;;1.10;;
70715;SDS011;59053;50.832;12.882;2023-04-24T08:45:31;5.27;;;1.50;;
70715;SDS011;59053;50.832;12.882;2023-04-24T08:47:57;3.53;;;1.60;;
70715;SDS011;59053;50.832;12.882;2023-04-24T08:50:26;1.98;;;1.20;;
70715;SDS011;59053;50.832;12.882;2023-04-24T08:52:52;2.30;;;1.07;;
70715;SDS011;59053;50.832;12.882;2023-04-24T08:55:18;2.63;;;1.10;;
70715;SDS011;59053;50.832;12.882;2023-04-24T08:57:45;2.70;;;1.30;;
70715;SDS011;59053;50.832;12.882;2023-04-24T09:00:15;3.50;;;1.30;;
70715;SDS011;59053;50.832;12.882;2023-04-24T09:02:44;1.92;;;1.00;;
70715;SDS011;59053;50.832;12.882;2023-04-24T09:05:10;3.45;;;1.48;;
70715;SDS011;59053;50.832;12.882;2023-04-24T09:07:36;2.33;;;1.17;;
70715;SDS011;59053;50.832;12.882;2023-04-24T09:10:03;2.67;;;1.10;;
70715;SDS011;59053;50.832;12.882;2023-04-24T09:12:29;1.63;;;1.10;;
70715;SDS011;59053;50.832;12.882;2023-04-24T09:14:54;2.50;;;1.40;;
70715;SDS011;59053;50.832;12.882;2023-04-24T09:17:20;6.90;;;1.50;;
70715;SDS011;59053;50.832;12.882;2023-04-24T09:19:47;2.65;;;1.30;;
70715;SDS011;59053;50.832;12.882;2023-04-24T09:22:13;4.03;;;1.10;;
70715;SDS011;59053;50.832;12.882;2023-04-24T09:24:39;3.53;;;1.40;;
70715;SDS011;59053;50.832;12.882;2023-04-24T09:27:04;2.07;;;1.10;;
70715;SDS011;59053;50.832;12.882;2023-04-24T09:29:30;1.63;;;1.13;;
70715;SDS011;59053;50.832;12.882;2023-04-24T09:31:56;2.97;;;1.15;;
70715;SDS011;59053;50.832;12.882;2023-04-24T09:34:22;3.93;;;1.10;;
70715;SDS011;59053;50.832;12.882;2023-04-24T09:36:49;2.72;;;1.00;;
70715;SDS011;59053;50.832;12.882;2023-04-24T09:39:15;1.67;;;1.20;;
70715;SDS011;59053;50.832;12.882;2023-04-24T09:41:45;2.10;;;1.00;;
70715;SDS011;59053;50.832;12.882;2023-04-24T09:44:17;3.08;;;1.00;;
70715;SDS011;59053;50.832;12.882;2023-04-24T09:46:43;1.38;;;1.10;;
70715;SDS011;59053;50.832;12.882;2023-04-24T09:49:12;1.43;;;0.80;;
70715;SDS011;59053;50.832;12.882;2023-04-24T09:51:38;2.00;;;0.80;;
70715;SDS011;59053;50.832;12.882;2023-04-24T09:54:05;1.17;;;0.82;;
70715;SDS011;59053;50.832;12.882;2023-04-24T09:56:41;2.00;;;0.80;;
70715;SDS011;59053;50.832;12.882;2023-04-24T09:59:08;3.03;;;0.95;;
70715;SDS011;59053;50.832;12.882;2023-04-24T10:01:33;2.37;;;0.90;;
70715;SDS011;59053;50.832;12.882;2023-04-24T10:03:59;3.27;;;0.90;;
70715;SDS011;59053;50.832;12.882;2023-04-24T10:06:32;3.03;;;0.70;;
70715;SDS011;59053;50.832;12.882;2023-04-24T10:08:58;2.28;;;0.80;;
70715;SDS011;59053;50.832;12.882;2023-04-24T10:11:25;4.30;;;0.90;;
70715;SDS011;59053;50.832;12.882;2023-04-24T10:13:51;1.25;;;0.90;;
70715;SDS011;59053;50.832;12.882;2023-04-24T10:16:17;1.57;;;0.80;;
70715;SDS011;59053;50.832;12.882;2023-04-24T10:18:43;3.70;;;1.10;;
70715;SDS011;59053;50.832;12.882;2023-04-24T10:21:09;1.97;;;1.17;;
70715;SDS011;59053;50.832;12.882;2023-04-24T10:23:34;2.08;;;0.98;;
70715;SDS011;59053;50.832;12.882;2023-04-24T10:26:00;1.40;;;0.95;;
70715;SDS011;59053;50.832;12.882;2023-04-24T10:28:26;1.40;;;0.97;;
70715;SDS011;59053;50.832;12.882;2023-04-24T10:30:53;6.50;;;1.20;;
70715;SDS011;59053;50.832;12.882;2023-04-24T10:33:20;2.35;;;1.30;;
70715;SDS011;59053;50.832;12.882;2023-04-24T10:35:48;3.38;;;1.10;;
70715;SDS011;59053;50.832;12.882;2023-04-24T10:38:17;1.40;;;0.90;;
70715;SDS011;59053;50.832;12.882;2023-04-24T10:40:49;1.63;;;0.90;;
70715;SDS011;59053;50.832;12.882;2023-04-24T10:43:16;5.47;;;1.10;;
70715;SDS011;59053;50.832;12.882;2023-04-24T10:45:42;3.08;;;1.00;;
70715;SDS011;59053;50.832;12.882;2023-04-24T10:48:26;4.82;;;0.90;;
70715;SDS011;59053;50.832;12.882;2023-04-24T10:50:52;1.30;;;0.93;;
70715;SDS011;59053;50.832;12.882;2023-04-24T10:53:21;2.08;;;1.17;;
70715;SDS011;59053;50.832;12.882;2023-04-24T10:55:52;1.20;;;1.00;;
70715;SDS011;59053;50.832;12.882;2023-04-24T10:58:23;2.00;;;1.08;;
70715;SDS011;59053;50.832;12.882;2023-04-24T11:00:58;2.40;;;1.02;;
70715;SDS011;59053;50.832;12.882;2023-04-24T11:03:27;1.80;;;1.10;;
70715;SDS011;59053;50.832;12.882;2023-04-24T11:08:26;1.55;;;1.02;;
70715;SDS011;59053;50.832;12.882;2023-04-24T11:13:22;2.47;;;1.02;;
70715;SDS011;59053;50.832;12.882;2023-04-24T11:18:51;2.08;;;1.15;;
70715;SDS011;59053;50.832;12.882;2023-04-24T11:21:19;2.83;;;1.48;;
70715;SDS011;59053;50.832;12.882;2023-04-24T11:23:45;2.58;;;1.20;;
70715;SDS011;59053;50.832;12.882;2023-04-24T11:26:18;1.88;;;1.08;;
70715;SDS011;59053;50.832;12.882;2023-04-24T11:28:46;3.53;;;1.10;;
70715;SDS011;59053;50.832;12.882;2023-04-24T11:34:13;1.25;;;1.10;;
70715;SDS011;59053;50.832;12.882;2023-04-24T11:36:39;4.55;;;1.20;;
70715;SDS011;59053;50.832;12.882;2023-04-24T11:39:05;3.30;;;1.20;;
70715;SDS011;59053;50.832;12.882;2023-04-24T11:41:31;2.80;;;1.23;;
70715;SDS011;59053;50.832;12.882;2023-04-24T11:43:57;1.65;;;1.35;;
70715;SDS011;59053;50.832;12.882;2023-04-24T11:46:22;1.53;;;1.30;;
70715;SDS011;59053;50.832;12.882;2023-04-24T11:48:47;1.60;;;1.30;;
70715;SDS011;59053;50.832;12.882;2023-04-24T11:51:16;2.23;;;1.30;;
70715;SDS011;59053;50.832;12.882;2023-04-24T11:53:41;5.72;;;1.20;;
70715;SDS011;59053;50.832;12.882;2023-04-24T11:56:08;2.83;;;1.47;;
70715;SDS011;59053;50.832;12.882;2023-04-24T11:58:37;6.20;;;1.45;;
70715;SDS011;59053;50.832;12.882;2023-04-24T12:01:04;3.67;;;1.25;;
70715;SDS011;59053;50.832;12.882;2023-04-24T12:03:30;4.10;;;1.40;;
70715;SDS011;59053;50.832;12.882;2023-04-24T12:06:08;4.10;;;1.20;;
70715;SDS011;59053;50.832;12.882;2023-04-24T12:08:34;2.17;;;1.20;;
70715;SDS011;59053;50.832;12.882;2023-04-24T12:11:00;2.10;;;1.40;;
70715;SDS011;59053;50.832;12.882;2023-04-24T12:13:26;3.92;;;1.63;;
70715;SDS011;59053;50.832;12.882;2023-04-24T12:15:51;2.10;;;1.20;;
70715;SDS011;59053;50.832;12.882;2023-04-24T12:18:17;5.53;;;1.20;;
70715;SDS011;59053;50.832;12.882;2023-04-24T12:20:42;1.93;;;1.23;;
70715;SDS011;59053;50.832;12.882;2023-04-24T12:23:07;2.30;;;1.20;;
70715;SDS011;59053;50.832;12.882;2023-04-24T12:25:33;4.27;;;1.63;;
70715;SDS011;59053;50.832;12.882;2023-04-24T12:30:31;3.00;;;1.20;;
70715;SDS011;59053;50.832;12.882;2023-04-24T12:32:58;3.60;;;1.15;;
70715;SDS011;59053;50.832;12.882;2023-04-24T12:35:26;3.42;;;1.15;;
70715;SDS011;59053;50.832;12.882;2023-04-24T12:37:52;9.90;;;1.40;;
70715;SDS011;59053;50.832;12.882;2023-04-24T12:40:18;6.23;;;1.37;;
70715;SDS011;59053;50.832;12.882;2023-04-24T12:42:44;2.40;;;1.42;;
70715;SDS011;59053;50.832;12.882;2023-04-24T12:45:11;3.10;;;1.50;;
70715;SDS011;59053;50.832;12.882;2023-04-24T12:47:37;3.37;;;1.37;;
70715;SDS011;59053;50.832;12.882;2023-04-24T12:50:04;2.63;;;1.35;;
70715;SDS011;59053;50.832;12.882;2023-04-24T12:52:30;4.05;;;1.48;;
70715;SDS011;59053;50.832;12.882;2023-04-24T12:54:57;3.07;;;1.47;;
70715;SDS011;59053;50.832;12.882;2023-04-24T12:57:23;3.20;;;1.40;;
70715;SDS011;59053;50.832;12.882;2023-04-24T12:59:49;4.25;;;1.50;;
70715;SDS011;59053;50.832;12.882;2023-04-24T13:02:15;3.40;;;1.30;;
70715;SDS011;59053;50.832;12.882;2023-04-24T13:04:44;3.58;;;1.30;;
70715;SDS011;59053;50.832;12.882;2023-04-24T13:07:11;3.42;;;1.80;;
70715;SDS011;59053;50.832;12.882;2023-04-24T13:09:37;4.47;;;1.80;;
70715;SDS011;59053;50.832;12.882;2023-04-24T13:12:03;3.53;;;1.50;;
70715;SDS011;59053;50.832;12.882;2023-04-24T13:14:30;3.78;;;1.70;;
70715;SDS011;59053;50.832;12.882;2023-04-24T13:16:56;1.80;;;1.40;;
70715;SDS011;59053;50.832;12.882;2023-04-24T13:19:21;3.77;;;1.67;;
70715;SDS011;59053;50.832;12.882;2023-04-24T13:21:48;2.63;;;1.70;;
70715;SDS011;59053;50.832;12.882;2023-04-24T13:24:14;2.53;;;1.40;;
70715;SDS011;59053;50.832;12.882;2023-04-24T13:26:40;3.90;;;1.85;;
70715;SDS011;59053;50.832;12.882;2023-04-24T13:29:06;2.90;;;1.57;;
70715;SDS011;59053;50.832;12.882;2023-04-24T13:31:31;3.20;;;1.70;;
70715;SDS011;59053;50.832;12.882;2023-04-24T13:33:57;2.78;;;1.50;;
70715;SDS011;59053;50.832;12.882;2023-04-24T13:36:22;3.40;;;1.50;;
70715;SDS011;59053;50.832;12.882;2023-04-24T13:38:47;3.40;;;1.40;;
70715;SDS011;59053;50.832;12.882;2023-04-24T13:41:13;2.43;;;1.70;;
70715;SDS011;59053;50.832;12.882;2023-04-24T13:43:38;2.80;;;1.70;;
70715;SDS011;59053;50.832;12.882;2023-04-24T13:46:03;11.73;;;1.80;;
70715;SDS011;59053;50.832;12.882;2023-04-24T13:48:29;2.45;;;1.60;;
70715;SDS011;59053;50.832;12.882;2023-04-24T13:50:55;2.17;;;1.53;;
70715;SDS011;59053;50.832;12.882;2023-04-24T13:53:20;2.08;;;1.50;;
70715;SDS011;59053;50.832;12.882;2023-04-24T13:55:45;2.80;;;1.80;;
70715;SDS011;59053;50.832;12.882;2023-04-24T13:58:11;2.37;;;1.50;;
70715;SDS011;59053;50.832;12.882;2023-04-24T14:00:36;2.73;;;1.73;;
70715;SDS011;59053;50.832;12.882;2023-04-24T14:03:01;3.07;;;1.50;;
70715;SDS011;59053;50.832;12.882;2023-04-24T14:05:27;2.67;;;1.60;;
70715;SDS011;59053;50.832;12.882;2023-04-24T14:07:52;2.67;;;1.60;;
70715;SDS011;59053;50.832;12.882;2023-04-24T14:10:17;1.80;;;1.30;;
70715;SDS011;59053;50.832;12.882;2023-04-24T14:12:43;5.97;;;1.70;;
70715;SDS011;59053;50.832;12.882;2023-04-24T14:15:08;2.17;;;1.70;;
70715;SDS011;59053;50.832;12.882;2023-04-24T14:17:34;2.42;;;1.65;;
70715;SDS011;59053;50.832;12.882;2023-04-24T14:20:00;3.10;;;1.80;;
70715;SDS011;59053;50.832;12.882;2023-04-24T14:22:25;4.33;;;1.73;;
70715;SDS011;59053;50.832;12.882;2023-04-24T14:24:51;3.77;;;1.70;;
70715;SDS011;59053;50.832;12.882;2023-04-24T14:27:16;3.13;;;1.80;;
70715;SDS011;59053;50.832;12.882;2023-04-24T14:29:41;2.37;;;1.73;;
70715;SDS011;59053;50.832;12.882;2023-04-24T14:32:07;2.77;;;1.70;;
70715;SDS011;59053;50.832;12.882;2023-04-24T14:34:34;2.25;;;1.50;;
70715;SDS011;59053;50.832;12.882;2023-04-24T14:36:59;2.95;;;1.80;;
70715;SDS011;59053;50.832;12.882;2023-04-24T14:39:25;2.40;;;1.70;;
70715;SDS011;59053;50.832;12.882;2023-04-24T14:41:50;3.00;;;1.80;;
70715;SDS011;59053;50.832;12.882;2023-04-24T14:44:15;4.77;;;1.70;;
70715;SDS011;59053;50.832;12.882;2023-04-24T14:46:41;2.23;;;1.70;;
70715;SDS011;59053;50.832;12.882;2023-04-24T14:49:07;3.50;;;1.60;;
70715;SDS011;59053;50.832;12.882;2023-04-24T14:51:34;2.65;;;1.83;;
70715;SDS011;59053;50.832;12.882;2023-04-24T14:54:00;4.20;;;1.70;;
70715;SDS011;59053;50.832;12.882;2023-04-24T14:56:26;2.35;;;1.70;;
70715;SDS011;59053;50.832;12.882;2023-04-24T14:58:51;2.77;;;1.60;;
70715;SDS011;59053;50.832;12.882;2023-04-24T15:01:16;2.73;;;1.63;;
70715;SDS011;59053;50.832;12.882;2023-04-24T15:03:42;3.83;;;1.70;;
70715;SDS011;59053;50.832;12.882;2023-04-24T15:06:08;1.90;;;1.20;;
70715;SDS011;59053;50.832;12.882;2023-04-24T15:08:33;3.63;;;1.60;;
70715;SDS011;59053;50.832;12.882;2023-04-24T15:10:58;4.30;;;1.27;;
70715;SDS011;59053;50.832;12.882;2023-04-24T15:13:24;6.43;;;1.60;;
70715;SDS011;59053;50.832;12.882;2023-04-24T15:15:49;1.70;;;1.20;;
70715;SDS011;59053;50.832;12.882;2023-04-24T15:18:14;3.38;;;1.40;;
70715;SDS011;59053;50.832;12.882;2023-04-24T15:20:40;2.30;;;1.33;;
70715;SDS011;59053;50.832;12.882;2023-04-24T15:23:07;3.05;;;1.17;;
70715;SDS011;59053;50.832;12.882;2023-04-24T15:25:33;1.70;;;1.13;;
70715;SDS011;59053;50.832;12.882;2023-04-24T15:27:58;1.30;;;0.98;;
70715;SDS011;59053;50.832;12.882;2023-04-24T15:30:24;3.83;;;1.20;;
70715;SDS011;59053;50.832;12.882;2023-04-24T15:32:49;2.90;;;1.20;;
70715;SDS011;59053;50.832;12.882;2023-04-24T15:35:15;2.17;;;1.20;;
70715;SDS011;59053;50.832;12.882;2023-04-24T15:37:41;2.27;;;1.20;;
70715;SDS011;59053;50.832;12.882;2023-04-24T15:40:07;4.25;;;1.65;;
70715;SDS011;59053;50.832;12.882;2023-04-24T15:42:33;2.05;;;1.08;;
70715;SDS011;59053;50.832;12.882;2023-04-24T15:44:58;1.57;;;1.20;;
70715;SDS011;59053;50.832;12.882;2023-04-24T15:47:24;4.90;;;1.20;;
70715;SDS011;59053;50.832;12.882;2023-04-24T15:49:50;1.90;;;1.20;;
70715;SDS011;59053;50.832;12.882;2023-04-24T15:52:16;4.43;;;1.00;;
70715;SDS011;59053;50.832;12.882;2023-04-24T15:54:42;3.73;;;1.33;;